Погода Малые Озерана 2 недели

Ростовская область, Россия

16 - 29 июля
  • 16июля
    Сегодня
    +20°
    +37°
    Практически безоблачно
    ВремяПогодаТемператураВлажностьДавлениеВетер, м/сВероятность осадков
    00:00Ясно и безоблачно+23°C40 %752 мм1.9 м/с2 %
    03:00Ясно и безоблачно+20°C49 %752 мм1.8 м/с2 %
    06:00Ясно и безоблачно+22°C48 %752 мм1.6 м/с2 %
    09:00Ясно и безоблачно+31°C27 %753 мм1.4 м/с2 %
    12:00Ясно и безоблачно+35°C22 %753 мм1.9 м/с2 %
    15:00Практически безоблачно+36°C19 %752 мм1.7 м/с2 %
    18:00Пасмурно, сплошная облачность+35°C20 %751 мм3.6 м/с2 %
    21:00Небольшая облачность+29°C27 %752 мм3.7 м/с2 %
  • 17июля
    Среда
    +20°
    +37°
    Практически безоблачно
    ВремяПогодаТемператураВлажностьДавлениеВетер, м/сВероятность осадков
    00:00Ясно и безоблачно+26°C32 %753 мм2.7 м/с2 %
    03:00Ясно и безоблачно+21°C40 %753 мм1.9 м/с2 %
    06:00Ясно и безоблачно+23°C41 %754 мм2.1 м/с2 %
    09:00Ясно и безоблачно+32°C28 %754 мм1.6 м/с2 %
    12:00Практически безоблачно+36°C21 %753 мм1.4 м/с2 %
    15:00Практически безоблачно+37°C21 %753 мм1.2 м/с2 %
    18:00Ясно и безоблачно+36°C22 %752 мм2.4 м/с2 %
    21:00Ясно и безоблачно+29°C30 %753 мм4.0 м/с2 %
  • 18июля
    Четверг
    +21°
    +39°
    Облачно с прояснениями
    ВремяПогодаТемператураВлажностьДавлениеВетер, м/сВероятность осадков
    00:00Ясно и безоблачно+24°C38 %753 мм2.0 м/с2 %
    03:00Ясно и безоблачно+21°C39 %753 мм1.9 м/с2 %
    06:00Ясно и безоблачно+23°C37 %753 мм2.4 м/с2 %
    09:00Ясно и безоблачно+32°C23 %753 мм2.6 м/с2 %
    12:00Ясно и безоблачно+36°C21 %752 мм1.1 м/с2 %
    15:00Облачно с прояснениями+38°C17 %751 мм0.3 м/с2 %
    18:00Ясно и безоблачно+36°C18 %750 мм3.2 м/с2 %
    21:00Ясно и безоблачно+30°C26 %750 мм1.4 м/с2 %
  • 19июля
    Пятница
    +20°
    +37°
    Небольшая облачность
    ВремяПогодаТемператураВлажностьДавлениеВетер, м/сВероятность осадков
    00:00Ясно и безоблачно+26°C30 %750 мм2.7 м/с2 %
    03:00Ясно и безоблачно+22°C36 %749 мм2.8 м/с2 %
    06:00Ясно и безоблачно+24°C38 %749 мм2.2 м/с2 %
    09:00Ясно и безоблачно+33°C26 %749 мм1.8 м/с2 %
    12:00Ясно и безоблачно+36°C21 %747 мм1.9 м/с6 %
    15:00Небольшая облачность+33°C41 %749 мм8.3 м/с19 %
    18:00Ясно и безоблачно+34°C34 %748 мм4.9 м/с19 %
    21:00Небольшая облачность+27°C53 %748 мм4.2 м/с6 %
  • 20июля
    Суббота
    +19°
    +34°
    Практически безоблачно
    ВремяПогодаТемператураВлажностьДавлениеВетер, м/сВероятность осадков
    00:00Ясно и безоблачно+23°C66 %748 мм4.1 м/с4 %
    03:00Ясно и безоблачно+21°C81 %748 мм4.3 м/с2 %
    06:00Практически безоблачно+21°C81 %749 мм4.2 м/с3 %
    09:00Ясно и безоблачно+28°C54 %749 мм4.3 м/с2 %
    12:00Ясно и безоблачно+32°C37 %748 мм4.8 м/с9 %
    15:00Практически безоблачно+33°C28 %748 мм4.7 м/с17 %
    18:00Практически безоблачно+33°C28 %748 мм3.8 м/с13 %
    21:00Ясно и безоблачно+27°C36 %749 мм3.5 м/с6 %
Мы используем cookies
Соглашаюсь